Girona, Spain

4:47 AM CEST on August 01, 2015 (GMT +0200)
Sant Narcís | | Change Station
CLOSE
Current Station
Personal Weather Station
Location: Girona, CATALUNYA
Elevation: 279 ft
Nearby Weather Stations
Active Advisory: Thunderstorms

Elev 279 ft 41.97 °N, 2.81 °E | Updated 2 minutes ago

Light Rain
Light Rain
63.6 °F
Feels Like 63.6 °F
N
1.0
Wind Variable Wind from NE
Gusts 6.0 mph

Today
High -- | Low -- °F
--% Chance of Precip.
Yesterday
High -- | Low -- °F
Precip. -- in
6:42 AM 9:07 PM
Full, 99% visible
Pressure 29.92 in
Visibility 5.6 miles
Clouds Few 400 ft
Scattered Clouds 1400 ft
Mostly Cloudy 5500 ft
Dew Point -13 °F
Humidity 4%
Rainfall 0.74 in
Snow Depth Not available.
UV 0 out of 12
Pollen Not available.
Air Quality Not available.
Flu Activity Not available.
METAR LEGE 010230Z 00000KT 9000 -RA FEW004 SCT014TCU BKN055 17/17 Q1013

More Conditions Fewer Conditions

Pressure 29.92 in
Visibility 5.6 miles
Clouds Few 400 ft
Scattered Clouds 1400 ft
Mostly Cloudy 5500 ft
Dew Point -13 °F
Humidity 4%
Rainfall 0.74 in
Snow Depth Not available.
UV 0 out of 12
Pollen Not available.
Air Quality Not available.
Flu Activity Not available.
METAR LEGE 010230Z 00000KT 9000 -RA FEW004 SCT014TCU BKN055 17/17 Q1013

More Conditions Fewer Conditions

10-Day Weather Forecast

×

Almanac

Astronomy

Aug. 01, 2015 Rise Set
Actual Time
Civil Twilight
Nautical Twilight
Astronomical Twilight
Moon
Length of Visible Light
Length of Day
Tomorrow will be .
, % of the Moon is Illuminated

Today's Extremes

Country Highs Country Lows

Community

WunderPhotos

Upload Photos

1,842,834 photos uploaded!

WunderBlogs® & News

Nearby

Air Quality

  Air Quality AQ Index Pollutant
Not available.

Snow Depth

Station Depth Elevation

Earthquake Activity

City Distance Mag. Time & Date
Minimum magnitude displayed is 2.5.

Coastal Water Temperatures

Place Temperature

Stations

Nearby Weather Stations

Station Location Temp. Windchill Dew Point Humidity Wind Precip. Elev Updated Type